createdAt,value
2023-04-02T00:01:21.198Z,100416.83
2023-04-02T00:04:22.792Z,100417.45
2023-04-02T00:07:15.610Z,100420.92
2023-04-02T00:09:48.582Z,100419.46
2023-04-02T00:12:25.260Z,100422.20
2023-04-02T00:15:00.608Z,100421.36
2023-04-02T00:17:37.309Z,100422.46
2023-04-02T00:20:22.850Z,100422.35
2023-04-02T00:22:59.016Z,100429.34
2023-04-02T00:25:43.788Z,100432.43
2023-04-02T00:28:21.152Z,100433.36
2023-04-02T00:31:01.662Z,100435.08
2023-04-02T00:33:37.023Z,100439.27
2023-04-02T00:36:14.175Z,100440.59
2023-04-02T00:38:49.876Z,100442.26
2023-04-02T00:41:30.841Z,100447.08
2023-04-02T00:44:07.634Z,100449.11
2023-04-02T00:47:06.300Z,100448.88
2023-04-02T00:49:43.601Z,100449.98
2023-04-02T00:52:20.751Z,100450.91
2023-04-02T00:55:04.969Z,100458.40
2023-04-02T00:57:40.302Z,100462.81
2023-04-02T01:00:26.165Z,100465.11
2023-04-02T01:03:37.415Z,100463.35
2023-04-02T01:06:19.910Z,100468.73
2023-04-02T01:09:18.645Z,100471.91
2023-04-02T01:12:12.950Z,100478.95
2023-04-02T01:14:58.280Z,100484.48
2023-04-02T01:18:03.532Z,100483.46
2023-04-02T01:20:59.327Z,100487.61
2023-04-02T01:23:42.298Z,100488.48
2023-04-02T01:26:25.484Z,100488.02
2023-04-02T01:29:10.377Z,100492.87
2023-04-02T01:31:47.412Z,100493.23
2023-04-02T01:34:26.825Z,100500.72
2023-04-02T01:37:15.345Z,100499.02
2023-04-02T01:40:06.929Z,100504.34
2023-04-02T01:42:47.216Z,100504.97
2023-04-02T01:45:24.720Z,100507.02
2023-04-02T01:48:01.075Z,100507.13
2023-04-02T01:50:40.511Z,100515.63
2023-04-02T01:53:17.905Z,100515.24
2023-04-02T01:55:55.408Z,100516.63
2023-04-02T01:58:33.243Z,100516.41
2023-04-02T02:01:15.489Z,100518.59
2023-04-02T02:03:51.828Z,100521.62
2023-04-02T02:06:28.677Z,100521.67
2023-04-02T02:09:15.151Z,100521.00
2023-04-02T02:11:51.609Z,100528.63
2023-04-02T02:14:30.257Z,100531.37
2023-04-02T02:17:14.121Z,100531.27
2023-04-02T02:19:58.459Z,100533.73
2023-04-02T02:22:35.631Z,100533.71
2023-04-02T02:25:16.470Z,100538.64
2023-04-02T02:28:10.689Z,100539.99
2023-04-02T02:30:50.105Z,100539.23
2023-04-02T02:33:29.248Z,100541.86
2023-04-02T02:36:14.358Z,100546.92
2023-04-02T02:39:05.361Z,100547.48
2023-04-02T02:41:50.529Z,100548.64
2023-04-02T02:44:29.206Z,100549.90
2023-04-02T02:47:07.091Z,100552.00
2023-04-02T02:49:47.074Z,100554.77
2023-04-02T02:52:27.017Z,100560.03
2023-04-02T02:55:14.161Z,100562.23
2023-04-02T02:58:01.382Z,100565.58
2023-04-02T03:00:42.258Z,100569.62
2023-04-02T03:03:20.219Z,100569.48
2023-04-02T03:06:05.204Z,100575.45
2023-04-02T03:08:44.818Z,100577.09
2023-04-02T03:11:30.127Z,100584.38
2023-04-02T03:14:15.263Z,100585.69
2023-04-02T03:16:59.926Z,100589.17
2023-04-02T03:19:44.811Z,100592.52
2023-04-02T03:22:25.898Z,100595.57
2023-04-02T03:25:05.511Z,100596.90
2023-04-02T03:27:47.233Z,100595.30
2023-04-02T03:30:35.036Z,100601.55
2023-04-02T03:33:16.282Z,100603.87
2023-04-02T03:36:00.101Z,100612.50
2023-04-02T03:38:38.305Z,100610.27
2023-04-02T03:41:21.280Z,100615.98
2023-04-02T03:44:04.442Z,100616.65
2023-04-02T03:46:46.967Z,100619.00
2023-04-02T03:49:30.978Z,100624.38
2023-04-02T03:52:13.449Z,100632.33
2023-04-02T03:54:54.037Z,100634.69
2023-04-02T03:57:37.151Z,100635.23
2023-04-02T04:00:23.334Z,100641.27
2023-04-02T04:03:08.954Z,100644.48
2023-04-02T04:05:51.068Z,100644.65
2023-04-02T04:08:34.578Z,100653.51
2023-04-02T04:11:18.085Z,100654.19
2023-04-02T04:13:58.442Z,100660.04
2023-04-02T04:16:43.164Z,100661.05
2023-04-02T04:19:24.973Z,100664.95
2023-04-02T04:22:15.212Z,100665.64
2023-04-02T04:24:50.460Z,100674.57
2023-04-02T04:27:35.239Z,100681.35
2023-04-02T04:30:24.652Z,100676.23
2023-04-02T04:33:04.925Z,100682.88
2023-04-02T04:35:47.504Z,100687.69
2023-04-02T04:38:33.883Z,100687.96
2023-04-02T04:41:18.652Z,100693.49
2023-04-02T04:43:58.979Z,100696.21
2023-04-02T04:46:39.320Z,100703.70
2023-04-02T04:49:24.059Z,100706.96
2023-04-02T04:52:04.259Z,100709.52
2023-04-02T04:54:42.824Z,100719.64
2023-04-02T04:57:32.820Z,100721.20
2023-04-02T05:00:14.632Z,100724.59
2023-04-02T05:02:57.559Z,100728.58
2023-04-02T05:05:40.616Z,100733.05
2023-04-02T05:08:24.280Z,100738.67
2023-04-02T05:11:07.336Z,100745.99
2023-04-02T05:13:50.989Z,100751.96
2023-04-02T05:16:42.905Z,100754.13
2023-04-02T05:19:27.135Z,100757.33
2023-04-02T05:22:08.148Z,100761.27
2023-04-02T05:25:06.236Z,100768.09
2023-04-02T05:27:49.039Z,100771.59
2023-04-02T05:30:42.372Z,100775.47
2023-04-02T05:33:35.688Z,100778.71
2023-04-02T05:36:23.120Z,100783.36
2023-04-02T05:39:00.468Z,100786.66
2023-04-02T05:41:44.771Z,100793.82
2023-04-02T05:44:28.784Z,100797.92
2023-04-02T05:47:10.688Z,100800.23
2023-04-02T05:49:52.130Z,100800.75
2023-04-02T05:52:31.928Z,100806.48
2023-04-02T05:55:46.259Z,100811.56
2023-04-02T05:58:36.381Z,100816.20
2023-04-02T06:01:35.508Z,100816.54
2023-04-02T06:04:24.735Z,100823.73
2023-04-02T06:07:08.130Z,100823.20
2023-04-02T06:09:50.782Z,100829.20
2023-04-02T06:12:33.933Z,100837.41
2023-04-02T06:15:15.208Z,100842.39
2023-04-02T06:17:54.448Z,100848.65
2023-04-02T06:20:31.050Z,100851.86
2023-04-02T06:23:12.828Z,100852.48
2023-04-02T06:25:53.968Z,100860.64
2023-04-02T06:28:35.315Z,100863.75
2023-04-02T06:31:20.278Z,100866.17
2023-04-02T06:33:59.466Z,100867.65
2023-04-02T06:36:36.518Z,100874.65
2023-04-02T06:39:21.925Z,100879.30
2023-04-02T06:42:03.951Z,100883.96
2023-04-02T06:44:59.848Z,100886.87
2023-04-02T06:48:10.519Z,100887.47
2023-04-02T06:50:54.682Z,100894.93
2023-04-02T06:53:37.057Z,100898.86
2023-04-02T06:56:22.714Z,100900.23
2023-04-02T06:58:59.275Z,100907.65
2023-04-02T07:01:40.899Z,100909.39
2023-04-02T07:04:16.890Z,100915.02
2023-04-02T07:06:54.273Z,100914.42
2023-04-02T07:09:31.524Z,100920.26
2023-04-02T07:12:18.218Z,100921.58
2023-04-02T07:14:53.256Z,100922.45
2023-04-02T07:17:27.690Z,100922.00
2023-04-02T07:20:04.096Z,100928.50
2023-04-02T07:22:40.682Z,100929.98
2023-04-02T07:25:18.117Z,100931.73
2023-04-02T07:27:53.941Z,100931.55
2023-04-02T07:30:30.222Z,100941.14
2023-04-02T07:33:05.086Z,100947.04
2023-04-02T07:35:43.982Z,100947.15
2023-04-02T07:38:21.442Z,100950.96
2023-04-02T07:40:57.580Z,100953.45
2023-04-02T07:43:39.881Z,100958.73
2023-04-02T07:46:18.582Z,100957.45
2023-04-02T07:48:54.470Z,100961.48
2023-04-02T07:51:32.352Z,100965.06
2023-04-02T07:54:11.430Z,100968.73
2023-04-02T07:56:47.617Z,100970.93
2023-04-02T07:59:22.335Z,100972.57
2023-04-02T08:01:58.123Z,100976.10
2023-04-02T08:04:34.601Z,100980.00
2023-04-02T08:07:09.069Z,100984.42
2023-04-02T08:09:44.666Z,100988.13
2023-04-02T08:12:19.372Z,100991.92
2023-04-02T08:14:54.432Z,100999.64
2023-04-02T08:17:32.841Z,100999.80
2023-04-02T08:20:24.831Z,101006.63
2023-04-02T08:23:03.454Z,101008.48
2023-04-02T08:25:39.914Z,101009.06
2023-04-02T08:28:15.632Z,101013.27
2023-04-02T08:30:52.542Z,101014.62
2023-04-02T08:33:30.049Z,101017.75
2023-04-02T08:36:05.194Z,101024.02
2023-04-02T08:38:41.185Z,101026.02
2023-04-02T08:41:27.970Z,101028.41
2023-04-02T08:44:43.462Z,101035.36
2023-04-02T08:47:22.597Z,101038.88
2023-04-02T08:50:05.137Z,101038.15
2023-04-02T08:52:49.176Z,101046.82
2023-04-02T08:55:51.342Z,101040.44
2023-04-02T08:58:49.439Z,101040.36
2023-04-02T09:01:35.865Z,101043.37
2023-04-02T09:04:19.122Z,101043.43
2023-04-02T09:07:03.426Z,101052.48
2023-04-02T09:09:42.854Z,101053.30
2023-04-02T09:12:32.228Z,101056.73
2023-04-02T09:15:29.563Z,101059.68
2023-04-02T09:18:17.248Z,101060.87
2023-04-02T09:20:55.905Z,101066.00
2023-04-02T09:23:34.658Z,101071.71
2023-04-02T09:26:28.210Z,101069.30
2023-04-02T09:29:38.332Z,101077.78
2023-04-02T09:32:55.892Z,101080.80
2023-04-02T09:35:34.483Z,101091.02
2023-04-02T09:38:24.258Z,101088.49
2023-04-02T09:41:04.848Z,101092.29
2023-04-02T09:43:41.541Z,101095.88
2023-04-02T09:46:33.833Z,101097.08
2023-04-02T09:49:18.674Z,101104.17
2023-04-02T09:52:20.129Z,101108.13
2023-04-02T09:55:28.962Z,101112.94
2023-04-02T09:58:19.104Z,101115.09
2023-04-02T10:00:57.604Z,101118.46
2023-04-02T10:03:38.757Z,101123.60
2023-04-02T10:06:20.904Z,101126.48
2023-04-02T10:09:25.066Z,101129.86
2023-04-02T10:12:06.584Z,101132.42
2023-04-02T10:14:44.931Z,101132.65
2023-04-02T10:17:24.536Z,101142.21
2023-04-02T10:20:08.330Z,101143.16
2023-04-02T10:22:48.952Z,101146.29
2023-04-02T10:25:28.914Z,101150.48
2023-04-02T10:28:15.180Z,101154.64
2023-04-02T10:31:02.790Z,101161.52
2023-04-02T10:33:40.742Z,101161.05
2023-04-02T10:36:30.779Z,101166.05
2023-04-02T10:39:15.667Z,101167.80
2023-04-02T10:41:57.811Z,101168.28
2023-04-02T10:44:44.300Z,101172.77
2023-04-02T10:47:32.556Z,101179.58
2023-04-02T10:50:24.637Z,101180.95
2023-04-02T10:53:09.091Z,101182.23
2023-04-02T10:55:48.489Z,101187.12
2023-04-02T10:58:28.298Z,101191.44
2023-04-02T11:01:10.381Z,101194.34
2023-04-02T11:03:51.194Z,101195.34
2023-04-02T11:06:29.874Z,101198.04
2023-04-02T11:09:09.743Z,101206.55
2023-04-02T11:11:53.018Z,101207.02
2023-04-02T11:14:29.923Z,101206.46
2023-04-02T11:17:05.825Z,101206.27
2023-04-02T11:19:40.260Z,101206.77
2023-04-02T11:22:21.956Z,101215.70
2023-04-02T11:25:03.496Z,101223.46
2023-04-02T11:27:38.579Z,101225.62
2023-04-02T11:30:31.711Z,101232.45
2023-04-02T11:33:45.436Z,101231.75
2023-04-02T11:36:56.049Z,101237.66
2023-04-02T11:40:22.729Z,101234.02
2023-04-02T11:43:19.799Z,101241.00
2023-04-02T11:46:03.582Z,101243.42
2023-04-02T11:48:39.481Z,101240.74
2023-04-02T11:51:43.492Z,101245.02
2023-04-02T11:54:39.396Z,101244.73
2023-04-02T11:57:24.915Z,101252.86
2023-04-02T12:00:18.586Z,101258.60
2023-04-02T12:03:12.723Z,101261.05
2023-04-02T12:06:00.448Z,101265.42
2023-04-02T12:08:54.689Z,101265.61
2023-04-02T12:11:43.647Z,101261.50
2023-04-02T12:15:00.119Z,101266.09
2023-04-02T12:17:37.835Z,101272.16
2023-04-02T12:20:24.523Z,101275.20
2023-04-02T12:23:01.153Z,101279.24
2023-04-02T12:25:40.869Z,101281.88
2023-04-02T12:28:21.415Z,101285.46
2023-04-02T12:31:14.057Z,101287.71
2023-04-02T12:33:53.113Z,101289.23
2023-04-02T12:36:28.315Z,101294.95
2023-04-02T12:39:04.293Z,101299.52
2023-04-02T12:41:42.469Z,101295.39
2023-04-02T12:44:23.397Z,101296.98
2023-04-02T12:46:59.688Z,101297.55
2023-04-02T12:49:40.259Z,101301.58
2023-04-02T12:52:18.634Z,101299.55
2023-04-02T12:55:00.333Z,101306.98
2023-04-02T12:57:49.112Z,101309.48
2023-04-02T13:00:39.210Z,101313.64
2023-04-02T13:03:26.017Z,101317.77
2023-04-02T13:06:05.654Z,101325.41
2023-04-02T13:08:45.301Z,101331.88
2023-04-02T13:11:22.851Z,101330.64
2023-04-02T13:14:03.419Z,101334.78
2023-04-02T13:16:48.983Z,101336.16
2023-04-02T13:19:52.148Z,101337.20
2023-04-02T13:22:35.487Z,101341.56
2023-04-02T13:25:12.523Z,101349.13
2023-04-02T13:27:48.256Z,101347.45
2023-04-02T13:30:27.291Z,101348.73
2023-04-02T13:33:05.027Z,101357.31
2023-04-02T13:35:40.486Z,101353.91
2023-04-02T13:38:18.155Z,101361.70
2023-04-02T13:40:54.986Z,101367.46
2023-04-02T13:43:35.188Z,101372.85
2023-04-02T13:46:16.741Z,101375.55
2023-04-02T13:48:50.941Z,101378.89
2023-04-02T13:51:33.497Z,101379.57
2023-04-02T13:54:14.023Z,101383.95
2023-04-02T13:56:50.042Z,101383.50
2023-04-02T13:59:24.862Z,101387.84
2023-04-02T14:02:08.456Z,101388.52
2023-04-02T14:04:51.006Z,101395.22
2023-04-02T14:07:53.072Z,101397.27
2023-04-02T14:10:41.372Z,101404.71
2023-04-02T14:13:37.838Z,101407.87
2023-04-02T14:16:29.440Z,101412.05
2023-04-02T14:19:20.033Z,101418.52
2023-04-02T14:22:05.806Z,101418.47
2023-04-02T14:24:51.242Z,101421.19
2023-04-02T14:27:40.344Z,101429.71
2023-04-02T14:30:24.557Z,101427.16
2023-04-02T14:33:10.831Z,101437.35
2023-04-02T14:35:48.120Z,101432.77
2023-04-02T14:38:27.320Z,101441.55
2023-04-02T14:41:06.895Z,101444.52
2023-04-02T14:43:47.360Z,101448.95
2023-04-02T14:46:22.640Z,101452.20
2023-04-02T14:49:02.491Z,101451.88
2023-04-02T14:51:44.403Z,101457.30
2023-04-02T14:54:31.320Z,101459.50
2023-04-02T14:57:17.952Z,101463.33
2023-04-02T15:00:00.441Z,101470.92
2023-04-02T15:02:43.743Z,101473.54
2023-04-02T15:05:24.568Z,101472.65
2023-04-02T15:08:05.145Z,101478.63
2023-04-02T15:10:43.312Z,101480.13
2023-04-02T15:13:22.600Z,101485.42
2023-04-02T15:16:00.384Z,101494.70
2023-04-02T15:18:35.849Z,101489.83
2023-04-02T15:21:32.263Z,101495.96
2023-04-02T15:24:18.591Z,101497.68
2023-04-02T15:27:07.124Z,101508.75
2023-04-02T15:29:51.059Z,101514.13
2023-04-02T15:32:32.033Z,101515.84
2023-04-02T15:35:22.872Z,101521.35
2023-04-02T15:38:06.549Z,101525.20
2023-04-02T15:41:05.232Z,101530.43
2023-04-02T15:43:46.403Z,101534.35
2023-04-02T15:46:28.351Z,101539.13
2023-04-02T15:49:19.494Z,101540.83
2023-04-02T15:52:07.998Z,101547.30
2023-04-02T15:55:03.143Z,101548.27
2023-04-02T15:57:59.252Z,101550.85
2023-04-02T16:00:38.925Z,101552.89
2023-04-02T16:03:42.246Z,101556.80
2023-04-02T16:06:33.330Z,101560.49
2023-04-02T16:09:20.473Z,101563.48
2023-04-02T16:12:00.519Z,101571.19
2023-04-02T16:14:36.522Z,101571.73
2023-04-02T16:17:25.031Z,101576.81
2023-04-02T16:20:06.793Z,101575.89
2023-04-02T16:22:59.491Z,101583.36
2023-04-02T16:25:42.038Z,101587.42
2023-04-02T16:28:26.335Z,101589.67
2023-04-02T16:31:12.201Z,101592.77
2023-04-02T16:34:03.816Z,101601.36
2023-04-02T16:36:52.865Z,101604.05
2023-04-02T16:39:39.922Z,101604.09
2023-04-02T16:42:25.899Z,101610.33
2023-04-02T16:45:11.061Z,101619.20
2023-04-02T16:48:11.900Z,101621.15
2023-04-02T16:50:58.389Z,101626.36
2023-04-02T16:53:58.414Z,101625.41
2023-04-02T16:56:50.831Z,101636.38
2023-04-02T16:59:36.001Z,101635.95
2023-04-02T17:02:25.697Z,101647.46
2023-04-02T17:05:18.688Z,101653.14
2023-04-02T17:08:01.979Z,101662.98
2023-04-02T17:10:48.043Z,101664.89
2023-04-02T17:13:43.292Z,101673.13
2023-04-02T17:16:22.518Z,101673.61
2023-04-02T17:18:59.396Z,101683.20
2023-04-02T17:21:35.615Z,101685.05
2023-04-02T17:24:23.787Z,101689.48
2023-04-02T17:27:02.724Z,101693.55
2023-04-02T17:29:43.756Z,101695.69
2023-04-02T17:32:23.845Z,101700.44
2023-04-02T17:35:00.840Z,101708.71
2023-04-02T17:37:44.857Z,101706.27
2023-04-02T17:40:28.315Z,101709.30
2023-04-02T17:43:15.251Z,101713.63
2023-04-02T17:45:55.006Z,101718.52
2023-04-02T17:48:37.470Z,101728.65
2023-04-02T17:51:19.432Z,101732.23
2023-04-02T17:54:06.990Z,101734.70
2023-04-02T17:56:54.562Z,101735.59
2023-04-02T18:00:04.119Z,101735.96
2023-04-02T18:03:24.516Z,101744.12
2023-04-02T18:06:09.128Z,101749.14
2023-04-02T18:08:56.402Z,101754.46
2023-04-02T18:11:39.163Z,101757.27
2023-04-02T18:14:29.148Z,101762.48
2023-04-02T18:17:12.551Z,101771.33
2023-04-02T18:19:53.380Z,101777.23
2023-04-02T18:22:41.926Z,101778.47
2023-04-02T18:25:29.060Z,101784.10
2023-04-02T18:28:22.679Z,101790.39
2023-04-02T18:31:01.551Z,101795.42
2023-04-02T18:33:52.809Z,101802.50
2023-04-02T18:36:39.753Z,101804.19
2023-04-02T18:39:28.169Z,101804.98
2023-04-02T18:42:09.115Z,101815.75
2023-04-02T18:44:56.782Z,101814.09
2023-04-02T18:47:39.948Z,101820.16
2023-04-02T18:50:46.585Z,101821.20
2023-04-02T18:53:24.388Z,101824.00
2023-04-02T18:56:05.161Z,101828.95
2023-04-02T18:58:52.756Z,101834.51
2023-04-02T19:01:35.180Z,101838.45
2023-04-02T19:04:15.161Z,101842.56
2023-04-02T19:06:55.722Z,101849.35
2023-04-02T19:09:37.192Z,101849.11
2023-04-02T19:12:21.969Z,101856.01
2023-04-02T19:15:00.145Z,101862.45
2023-04-02T19:17:44.354Z,101864.52
2023-04-02T19:20:29.501Z,101874.67
2023-04-02T19:23:21.728Z,101874.20
2023-04-02T19:26:04.957Z,101880.48
2023-04-02T19:28:48.021Z,101879.22
2023-04-02T19:31:45.513Z,101879.42
2023-04-02T19:34:28.160Z,101882.95
2023-04-02T19:37:12.832Z,101883.22
2023-04-02T19:40:21.796Z,101888.58
2023-04-02T19:42:59.384Z,101886.23
2023-04-02T19:45:46.687Z,101885.40
2023-04-02T19:48:24.320Z,101893.34
2023-04-02T19:51:03.795Z,101895.88
2023-04-02T19:53:39.092Z,101895.64
2023-04-02T19:56:16.646Z,101897.21
2023-04-02T19:58:51.972Z,101892.89
2023-04-02T20:01:26.981Z,101898.34
2023-04-02T20:04:01.922Z,101900.31
2023-04-02T20:06:38.196Z,101902.89
2023-04-02T20:09:13.574Z,101905.46
2023-04-02T20:11:48.291Z,101909.55
2023-04-02T20:14:24.742Z,101913.27
2023-04-02T20:17:01.935Z,101914.80
2023-04-02T20:19:37.330Z,101921.02
2023-04-02T20:22:12.863Z,101922.94
2023-04-02T20:24:48.930Z,101925.25
2023-04-02T20:27:23.279Z,101933.96
2023-04-02T20:29:59.403Z,101936.58
2023-04-02T20:32:37.308Z,101939.10
2023-04-02T20:35:15.958Z,101945.10
2023-04-02T20:37:51.506Z,101949.00
2023-04-02T20:40:26.023Z,101952.13
2023-04-02T20:43:01.578Z,101955.52
2023-04-02T20:45:38.869Z,101957.87
2023-04-02T20:48:14.843Z,101959.59
2023-04-02T20:50:51.671Z,101960.06
2023-04-02T20:53:25.924Z,101962.23
2023-04-02T20:56:08.062Z,101967.67
2023-04-02T20:58:44.759Z,101964.65
2023-04-02T21:01:23.920Z,101969.52
2023-04-02T21:04:02.321Z,101972.76
2023-04-02T21:06:38.739Z,101975.20
2023-04-02T21:09:17.450Z,101974.80
2023-04-02T21:11:51.936Z,101979.13
2023-04-02T21:14:26.709Z,101978.76
2023-04-02T21:17:01.495Z,101980.61
2023-04-02T21:19:36.860Z,101981.45
2023-04-02T21:22:13.286Z,101986.33
2023-04-02T21:24:48.874Z,101984.36
2023-04-02T21:27:26.854Z,101987.36
2023-04-02T21:30:00.453Z,101994.80
2023-04-02T21:32:35.752Z,101998.86
2023-04-02T21:35:33.065Z,101998.85
2023-04-02T21:38:09.683Z,101998.87
2023-04-02T21:40:46.395Z,102008.20
2023-04-02T21:43:21.451Z,102009.33
2023-04-02T21:45:59.877Z,102011.16
2023-04-02T21:48:36.945Z,102016.14
2023-04-02T21:51:14.582Z,102022.58
2023-04-02T21:53:50.216Z,102022.81
2023-04-02T21:56:27.491Z,102024.63
2023-04-02T21:59:03.977Z,102028.71
2023-04-02T22:01:42.543Z,102027.88
2023-04-02T22:04:20.052Z,102029.95
2023-04-02T22:06:55.705Z,102031.59
2023-04-02T22:09:31.011Z,102037.65
2023-04-02T22:12:08.122Z,102038.40
2023-04-02T22:14:45.217Z,102041.48
2023-04-02T22:17:21.847Z,102044.96
2023-04-02T22:19:56.005Z,102047.80
2023-04-02T22:22:32.845Z,102049.17
2023-04-02T22:25:11.168Z,102051.36
2023-04-02T22:27:46.201Z,102054.73
2023-04-02T22:30:21.052Z,102051.26
2023-04-02T22:32:58.156Z,102057.77
2023-04-02T22:35:32.965Z,102056.70
2023-04-02T22:38:07.246Z,102056.59
2023-04-02T22:40:42.191Z,102060.61
2023-04-02T22:43:18.021Z,102061.76
2023-04-02T22:45:54.654Z,102064.08
2023-04-02T22:48:30.356Z,102067.56
2023-04-02T22:51:06.231Z,102068.54
2023-04-02T22:53:41.359Z,102066.05
2023-04-02T22:56:19.333Z,102065.82
2023-04-02T22:58:56.894Z,102073.75
2023-04-02T23:01:34.024Z,102070.48
2023-04-02T23:04:11.220Z,102075.91
2023-04-02T23:06:48.147Z,102073.71
2023-04-02T23:09:24.509Z,102076.26
2023-04-02T23:11:59.002Z,102075.61
2023-04-02T23:14:35.754Z,102076.64
2023-04-02T23:17:11.114Z,102075.91
2023-04-02T23:19:45.594Z,102078.63
2023-04-02T23:22:20.301Z,102079.03
2023-04-02T23:24:54.864Z,102080.93
2023-04-02T23:27:29.720Z,102080.30
2023-04-02T23:30:06.740Z,102082.34
2023-04-02T23:32:42.739Z,102082.02
2023-04-02T23:35:16.809Z,102083.90
2023-04-02T23:37:52.512Z,102081.88
2023-04-02T23:40:28.591Z,102082.50
2023-04-02T23:43:03.752Z,102083.10
2023-04-02T23:45:39.727Z,102086.11
2023-04-02T23:48:14.429Z,102089.78
2023-04-02T23:50:50.860Z,102090.56
2023-04-02T23:53:25.502Z,102093.24
2023-04-02T23:56:01.209Z,102092.71
2023-04-02T23:58:36.904Z,102091.64
